Terminal Aerodrome Forecast
Issued by NWS

Home | Current Version | Previous Version | Text Only | Print | Product List | Glossary On
Versions: 1 2 3 4 5 6 7 8 9 10 11 12 13 14
620
FTUS42 KMLB 200541
TAFFPR
TAF
KFPR 200541Z 2006/2106 04004KT P6SM SCT050
     FM201400 06006KT P6SM FEW025 SCT100
     FM201800 06010KT P6SM VCSH SCT030 BKN060
     FM210100 07004KT P6SM SCT100=

USA.gov is the U.S. government's official web portal to all federal, state and local government web resources and services.